Time;durP1;ratioP1;P1;durP2;ratioP2;P2;SDS_P1;SDS_P2;PMS_P1;PMS_P2;Temp;Humidity;BMP_temperature;BMP_pressure;BME280_temperature;BME280_humidity;BME280_pressure;Samples;Min_cycle;Max_cycle;Signal;HPM_P1;HPM_P2
2021/06/28 00:01:37;;;;;;;2.13;1.67;;;;;;;;;;3575412;40;20384;-69
2021/06/28 00:04:04;;;;;;;2.47;1.50;;;;;;;;;;3577165;40;20821;-69
2021/06/28 00:06:30;;;;;;;3.63;1.80;;;;;;;;;;3567537;40;20752;-68
2021/06/28 00:08:56;;;;;;;1.67;1.57;;;;;;;;;;3577026;40;20407;-69
2021/06/28 00:11:24;;;;;;;2.92;1.85;;;;;;;;;;3577075;40;20383;-69
2021/06/28 00:13:53;;;;;;;2.75;1.60;;;;;;;;;;3577406;40;20772;-69
2021/06/28 00:16:23;;;;;;;1.53;1.40;;;;;;;;;;3571741;40;20407;-69
2021/06/28 00:18:49;;;;;;;2.20;1.60;;;;;;;;;;3572707;40;20399;-69
2021/06/28 00:21:16;;;;;;;2.28;1.60;;;;;;;;;;3571003;40;20707;-69
2021/06/28 00:23:42;;;;;;;2.50;1.65;;;;;;;;;;3577268;40;20427;-69
2021/06/28 00:26:09;;;;;;;1.92;1.63;;;;;;;;;;3577029;40;20395;-68
2021/06/28 00:28:36;;;;;;;3.20;1.90;;;;;;;;;;3577030;40;20376;-68
2021/06/28 00:31:03;;;;;;;2.30;1.50;;;;;;;;;;3577376;40;20377;-69
2021/06/28 00:33:30;;;;;;;5.03;1.80;;;;;;;;;;3575134;40;20363;-69
2021/06/28 00:35:56;;;;;;;4.70;1.70;;;;;;;;;;3577088;40;20371;-69
2021/06/28 00:38:22;;;;;;;2.17;1.63;;;;;;;;;;3575519;40;20734;-69
2021/06/28 00:40:49;;;;;;;2.75;1.52;;;;;;;;;;3577599;40;20376;-69
2021/06/28 00:43:16;;;;;;;2.58;1.80;;;;;;;;;;3577126;40;20708;-69
2021/06/28 00:45:44;;;;;;;2.85;1.45;;;;;;;;;;3576944;40;20360;-69
2021/06/28 00:48:11;;;;;;;2.40;1.67;;;;;;;;;;3575253;40;20918;-69
2021/06/28 00:50:38;;;;;;;2.85;1.60;;;;;;;;;;3567823;40;20407;-69
2021/06/28 00:53:06;;;;;;;2.80;1.63;;;;;;;;;;3577031;40;20389;-69
2021/06/28 00:55:32;;;;;;;2.17;1.88;;;;;;;;;;3572130;40;20773;-69
2021/06/28 00:57:58;;;;;;;2.03;1.58;;;;;;;;;;3569519;40;20446;-68
2021/06/28 01:00:25;;;;;;;1.88;1.67;;;;;;;;;;3577085;40;20419;-69
2021/06/28 01:02:53;;;;;;;1.60;1.50;;;;;;;;;;3613747;22;20426;-68
2021/06/28 01:05:21;;;;;;;4.30;1.80;;;;;;;;;;3583310;40;20397;-69
2021/06/28 01:07:48;;;;;;;2.25;1.42;;;;;;;;;;3586155;40;20394;-69
2021/06/28 01:10:15;;;;;;;2.60;1.70;;;;;;;;;;3585648;40;20467;-68
2021/06/28 01:12:41;;;;;;;2.03;1.70;;;;;;;;;;3575038;40;20774;-69
2021/06/28 01:15:07;;;;;;;1.83;1.42;;;;;;;;;;3586368;40;20393;-68
2021/06/28 01:17:34;;;;;;;1.98;1.70;;;;;;;;;;3582695;40;20498;-69
2021/06/28 01:20:04;;;;;;;2.08;1.70;;;;;;;;;;3586914;40;20390;-69
2021/06/28 01:22:32;;;;;;;1.83;1.65;;;;;;;;;;3586902;40;20382;-69
2021/06/28 01:25:00;;;;;;;6.13;1.75;;;;;;;;;;3583745;40;20466;-69
2021/06/28 01:27:28;;;;;;;2.65;1.75;;;;;;;;;;3586467;40;20448;-69
2021/06/28 01:29:54;;;;;;;1.77;1.67;;;;;;;;;;3583967;40;20512;-68
2021/06/28 01:32:21;;;;;;;2.35;1.42;;;;;;;;;;3579342;40;20506;-69
2021/06/28 01:34:47;;;;;;;1.60;1.50;;;;;;;;;;3585399;40;20386;-68
2021/06/28 01:37:19;;;;;;;2.90;1.60;;;;;;;;;;3578094;40;20445;-68
2021/06/28 01:39:46;;;;;;;2.40;1.80;;;;;;;;;;3586718;40;20355;-69
2021/06/28 01:42:13;;;;;;;3.05;1.55;;;;;;;;;;3586551;40;20652;-69
2021/06/28 01:44:40;;;;;;;1.90;1.80;;;;;;;;;;3586302;40;20398;-70
2021/06/28 01:47:06;;;;;;;2.83;2.03;;;;;;;;;;3584650;40;20406;-69
2021/06/28 01:49:32;;;;;;;2.55;1.60;;;;;;;;;;3585390;40;20502;-69
2021/06/28 01:51:58;;;;;;;3.95;2.00;;;;;;;;;;3584942;40;20456;-69
2021/06/28 01:54:27;;;;;;;2.40;1.85;;;;;;;;;;3581154;40;20430;-68
2021/06/28 01:56:54;;;;;;;2.75;1.95;;;;;;;;;;3588050;40;20623;-69
2021/06/28 01:59:23;;;;;;;2.80;1.70;;;;;;;;;;3586595;40;20382;-69
2021/06/28 02:01:49;;;;;;;2.20;1.52;;;;;;;;;;3583211;40;20398;-69
2021/06/28 02:04:18;;;;;;;2.65;1.95;;;;;;;;;;3584231;40;20511;-69
2021/06/28 02:06:44;;;;;;;2.58;1.90;;;;;;;;;;3587463;40;20739;-69
2021/06/28 02:09:10;;;;;;;2.42;1.70;;;;;;;;;;3586390;40;20406;-68
2021/06/28 02:11:36;;;;;;;2.10;1.90;;;;;;;;;;3586674;40;20419;-69
2021/06/28 02:14:03;;;;;;;1.75;1.65;;;;;;;;;;3578606;40;20404;-69
2021/06/28 02:16:30;;;;;;;3.17;1.70;;;;;;;;;;3585787;40;20771;-69
2021/06/28 02:18:56;;;;;;;2.38;1.77;;;;;;;;;;3586463;40;20378;-69
2021/06/28 02:21:23;;;;;;;3.17;2.00;;;;;;;;;;3581823;40;20401;-67
2021/06/28 02:23:49;;;;;;;2.33;1.83;;;;;;;;;;3586271;40;20374;-68
2021/06/28 02:26:15;;;;;;;1.73;1.63;;;;;;;;;;3589042;40;20378;-68
2021/06/28 02:28:43;;;;;;;3.10;1.77;;;27.20;99.90;;;;;;3586130;40;20440;-68
2021/06/28 02:31:11;;;;;;;3.27;1.63;;;22.90;98.80;;;;;;3587824;40;20432;-67
2021/06/28 02:33:40;;;;;;;2.03;1.90;;;22.70;98.60;;;;;;3580477;40;20394;-68
2021/06/28 02:36:07;;;;;;;1.88;1.58;;;22.80;98.30;;;;;;3581951;40;20389;-67
2021/06/28 02:38:33;;;;;;;1.77;1.67;;;22.80;98.40;;;;;;3586512;40;20755;-68
2021/06/28 02:41:00;;;;;;;2.67;1.70;;;22.70;98.40;;;;;;3578958;40;20405;-69
2021/06/28 02:43:26;;;;;;;3.38;1.85;;;22.70;98.60;;;;;;3584849;40;20374;-69
2021/06/28 02:45:52;;;;;;;2.30;2.00;;;;;;;;;;3584536;40;20391;-68
2021/06/28 02:48:19;;;;;;;2.67;2.13;;;22.70;98.60;;;;;;3581781;40;20461;-69
2021/06/28 02:50:46;;;;;;;2.63;2.05;;;;;;;;;;3585505;40;20390;-70
2021/06/28 02:53:16;;;;;;;2.10;2.00;;;;;;;;;;3586341;40;20386;-69
2021/06/28 02:55:42;;;;;;;2.03;1.90;;;;;;;;;;3580374;40;20380;-69
2021/06/28 02:58:08;;;;;;;3.30;1.95;;;;;;;;;;3586680;40;20404;-69
2021/06/28 03:00:35;;;;;;;2.08;1.80;;;;;;;;;;3584917;40;20388;-69
2021/06/28 03:03:01;;;;;;;2.95;2.10;;;;;;;;;;3584070;40;20792;-69
2021/06/28 03:05:27;;;;;;;2.33;1.98;;;;;;;;;;3580070;40;20410;-69
2021/06/28 03:07:55;;;;;;;2.27;1.77;;;;;;;;;;3580172;40;20471;-69
2021/06/28 03:10:22;;;;;;;2.17;1.98;;;22.60;98.60;;;;;;3586264;40;20386;-69
2021/06/28 03:12:48;;;;;;;3.55;2.10;;;22.30;98.70;;;;;;3586007;40;20418;-70
2021/06/28 03:15:17;;;;;;;2.63;2.05;;;22.30;98.90;;;;;;3586192;40;20386;-70
2021/06/28 03:17:43;;;;;;;2.35;1.60;;;22.30;98.90;;;;;;3586168;40;20770;-69
2021/06/28 03:20:12;;;;;;;3.70;2.05;;;22.30;99.00;;;;;;3586059;40;20387;-68
2021/06/28 03:22:39;;;;;;;2.50;2.20;;;22.30;98.90;;;;;;3585625;40;20785;-68
2021/06/28 03:25:10;;;;;;;2.22;1.98;;;22.30;99.00;;;;;;3585888;40;20374;-69
2021/06/28 03:27:36;;;;;;;2.10;1.90;;;;;;;;;;3583533;40;20366;-69
2021/06/28 03:30:02;;;;;;;2.63;2.23;;;;;;;;;;3584631;40;20374;-68
2021/06/28 03:32:28;;;;;;;2.72;1.90;;;;;;;;;;3585637;40;20866;-69
2021/06/28 03:34:55;;;;;;;2.15;1.88;;;;;;;;;;3585437;40;20374;-69
2021/06/28 03:37:21;;;;;;;2.75;2.40;;;;;;;;;;3580323;40;20718;-69
2021/06/28 03:39:47;;;;;;;2.50;1.83;;;;;;;;;;3578916;40;20466;-69
2021/06/28 03:42:15;;;;;;;2.80;2.03;;;;;;;;;;3578061;40;20691;-68
2021/06/28 03:44:41;;;;;;;2.42;2.08;;;;;;;;;;3585611;40;20394;-68
2021/06/28 03:47:07;;;;;;;2.15;2.05;;;;;;;;;;3586783;40;20425;-69
2021/06/28 03:49:34;;;;;;;2.08;1.98;;;;;;;;;;3587069;40;20377;-68
2021/06/28 03:52:00;;;;;;;2.28;2.08;;;;;;;;;;3586251;40;20414;-69
2021/06/28 03:54:26;;;;;;;2.35;1.90;;;;;;;;;;3586520;40;20467;-69
2021/06/28 03:56:53;;;;;;;2.28;2.08;;;;;;;;;;3587372;40;20374;-69
2021/06/28 03:59:21;;;;;;;2.70;2.00;;;;;;;;;;3586986;40;20399;-69
2021/06/28 04:01:47;;;;;;;2.72;2.03;;;;;;;;;;3576772;40;20405;-69
2021/06/28 04:04:13;;;;;;;3.13;2.10;;;;;;;;;;3586674;40;20652;-69
2021/06/28 04:06:39;;;;;;;3.17;2.17;;;;;;;;;;3586807;40;20397;-69
2021/06/28 04:09:06;;;;;;;3.20;2.20;;;;;;;;;;3587040;40;20393;-68
2021/06/28 04:11:32;;;;;;;3.10;2.00;;;;;;;;;;3583390;40;20735;-68
2021/06/28 04:13:58;;;;;;;1.98;1.88;;;;;;;;;;3586509;40;20464;-68
2021/06/28 04:16:26;;;;;;;2.15;1.95;;;;;;;;;;3586084;40;21018;-68
2021/06/28 04:18:52;;;;;;;3.10;2.13;;;;;;;;;;3587004;40;20397;-69
2021/06/28 04:21:19;;;;;;;2.30;2.10;;;;;;;;;;3587188;40;20483;-69
2021/06/28 04:23:45;;;;;;;2.38;2.17;;;;;;;;;;3587085;40;20455;-68
2021/06/28 04:26:11;;;;;;;3.00;2.30;;;;;;;;;;3584364;40;20718;-68
2021/06/28 04:28:38;;;;;;;2.85;2.17;;;;;;;;;;3586776;40;20434;-69
2021/06/28 04:31:07;;;;;;;2.53;2.22;;;;;;;;;;3587195;40;20405;-68
2021/06/28 04:33:35;;;;;;;3.10;2.00;;;;;;;;;;3586226;40;20702;-68
2021/06/28 04:36:01;;;;;;;2.10;2.00;;;;;;;;;;3579197;40;20414;-69
2021/06/28 04:38:27;;;;;;;2.28;2.10;;;;;;;;;;3587296;40;20386;-69
2021/06/28 04:40:53;;;;;;;2.40;2.15;;;;;;;;;;3581177;40;20393;-69
2021/06/28 04:43:20;;;;;;;4.80;2.37;;;;;;;;;;3580199;40;20408;-68
2021/06/28 04:45:46;;;;;;;3.13;2.20;;;;;;;;;;3585237;40;20391;-69
2021/06/28 04:48:14;;;;;;;3.25;2.95;;;;;;;;;;3585458;40;20755;-69
2021/06/28 04:50:41;;;;;;;4.13;3.13;;;;;;;;;;3583600;40;20458;-69
2021/06/28 04:53:08;;;;;;;6.03;3.67;;;;;;;;;;3579478;40;20393;-69
2021/06/28 04:55:34;;;;;;;4.13;3.53;;;;;;;;;;3584387;40;20651;-68
2021/06/28 04:58:00;;;;;;;4.00;3.10;;;;;;;;;;3586689;40;20475;-68
2021/06/28 05:00:26;;;;;;;3.97;2.92;;;;;;;;;;3587000;40;20390;-68
2021/06/28 05:02:53;;;;;;;6.28;3.50;;;;;;;;;;3578084;40;20425;-68
2021/06/28 05:05:20;;;;;;;4.78;3.70;;;;;;;;;;3581978;40;20369;-69
2021/06/28 05:07:47;;;;;;;5.17;4.43;;;;;;;;;;3583566;40;20382;-69
2021/06/28 05:10:15;;;;;;;5.82;3.85;;;;;;;;;;3584698;40;20381;-69
2021/06/28 05:12:41;;;;;;;5.13;3.92;;;;;;;;;;3582886;40;20468;-69
2021/06/28 05:15:08;;;;;;;3.72;3.35;;;;;;;;;;3581606;40;20768;-69
2021/06/28 05:17:34;;;;;;;4.15;3.25;;;;;;;;;;3575748;40;20522;-68
2021/06/28 05:20:00;;;;;;;3.50;2.75;;;;;;;;;;3586917;40;20548;-68
2021/06/28 05:22:27;;;;;;;3.37;2.50;;;;;;;;;;3582012;40;20630;-69
2021/06/28 05:24:54;;;;;;;5.25;3.15;;;;;;;;;;3586581;40;20396;-69
2021/06/28 05:27:20;;;;;;;3.30;3.00;;;;;;;;;;3583865;40;20382;-69
2021/06/28 05:29:46;;;;;;;5.57;3.58;;;;;;;;;;3579948;40;20398;-69
2021/06/28 05:32:13;;;;;;;6.17;4.00;;;;;;;;;;3585907;40;20455;-69
2021/06/28 05:34:39;;;;;;;4.20;3.38;;;;;;;;;;3580475;40;20411;-71
2021/06/28 05:37:05;;;;;;;4.50;3.08;;;;;;;;;;3582502;40;20400;-70
2021/06/28 05:39:31;;;;;;;4.38;3.05;;;;;;;;;;3586536;40;20782;-68
2021/06/28 05:41:59;;;;;;;5.30;2.63;;;;;;;;;;3578597;40;20437;-69
2021/06/28 05:44:25;;;;;;;2.90;2.70;;;;;;;;;;3586509;40;20378;-69
2021/06/28 05:46:51;;;;;;;2.63;2.23;;;;;;;;;;3574197;40;20393;-69
2021/06/28 05:49:17;;;;;;;2.72;2.30;;;;;;;;;;3585335;40;20395;-69
2021/06/28 05:51:43;;;;;;;2.60;1.92;;;;;;;;;;3586495;40;20381;-69
2021/06/28 05:54:10;;;;;;;2.92;2.72;;;;;;;;;;3584709;40;20647;-69
2021/06/28 05:56:36;;;;;;;3.78;2.53;;;;;;;;;;3586848;40;20383;-70
2021/06/28 05:59:03;;;;;;;2.85;2.65;;;;;;;;;;3581283;40;20773;-69
2021/06/28 06:01:30;;;;;;;3.88;2.67;;;;;;;;;;3586772;40;20494;-69
2021/06/28 06:03:56;;;;;;;3.00;2.70;;;;;;;;;;3580336;40;20413;-69
2021/06/28 06:06:22;;;;;;;3.00;2.78;;;;;;;;;;3586610;40;20401;-69
2021/06/28 06:08:49;;;;;;;3.25;2.95;;;;;;;;;;3578202;40;20798;-69
2021/06/28 06:11:15;;;;;;;4.03;2.90;;;;;;;;;;3585043;40;20394;-69
2021/06/28 06:13:41;;;;;;;3.30;3.08;;;;;;;;;;3586709;40;20382;-69
2021/06/28 06:16:08;;;;;;;5.82;3.25;;;22.20;99.00;;;;;;3586601;40;20378;-69
2021/06/28 06:18:34;;;;;;;3.15;2.75;;;23.00;99.90;;;;;;3584540;40;20479;-69
2021/06/28 06:21:00;;;;;;;3.53;2.75;;;23.00;99.90;;;;;;3584011;40;20427;-70
2021/06/28 06:23:26;;;;;;;4.63;2.95;;;;;;;;;;3583982;40;20386;-71
2021/06/28 06:25:52;;;;;;;3.20;2.90;;;;;;;;;;3584403;40;20392;-70
2021/06/28 06:28:19;;;;;;;2.88;2.63;;;;;;;;;;3586643;40;20373;-69
2021/06/28 06:30:45;;;;;;;3.38;3.08;;;;;;;;;;3586306;40;20394;-70
2021/06/28 06:33:12;;;;;;;3.10;2.80;;;;;;;;;;3586607;40;20384;-69
2021/06/28 06:35:39;;;;;;;4.23;2.90;;;;;;;;;;3583838;40;20389;-70
2021/06/28 06:38:05;;;;;;;2.97;2.72;;;;;;;;;;3583907;40;20374;-69
2021/06/28 06:40:32;;;;;;;4.85;2.72;;;;;;;;;;3581947;40;20380;-70
2021/06/28 06:42:58;;;;;;;2.40;2.20;;;;;;;;;;3575786;40;20410;-70
2021/06/28 06:45:25;;;;;;;3.90;2.90;;;23.00;99.90;;;;;;3568995;40;20402;-70
2021/06/28 06:47:51;;;;;;;5.00;2.70;;;23.90;99.00;;;;;;3586278;40;20381;-69
2021/06/28 06:50:19;;;;;;;4.13;3.10;;;;;;;;;;3577201;40;20394;-69
2021/06/28 06:52:46;;;;;;;3.55;3.05;;;;;;;;;;3585559;40;20380;-69
2021/06/28 06:55:13;;;;;;;4.43;2.67;;;;;;;;;;3583781;40;20389;-69
2021/06/28 06:57:40;;;;;;;3.70;2.50;;;;;;;;;;3586661;40;20384;-69
2021/06/28 07:00:08;;;;;;;4.18;3.10;;;;;;;;;;3585753;40;20634;-69
2021/06/28 07:02:35;;;;;;;4.47;3.00;;;;;;;;;;3586200;40;20403;-69
2021/06/28 07:05:01;;;;;;;5.23;3.43;;;;;;;;;;3584985;40;20359;-70
2021/06/28 07:07:28;;;;;;;4.20;2.90;;;;;;;;;;3584436;40;20393;-69
2021/06/28 07:09:54;;;;;;;4.15;2.97;;;;;;;;;;3586186;40;20410;-70
2021/06/28 07:12:22;;;;;;;5.22;3.17;;;24.00;98.80;;;;;;3586307;40;20429;-69
2021/06/28 07:14:48;;;;;;;5.28;3.38;;;24.30;99.70;;;;;;3578913;40;20509;-70
2021/06/28 07:17:14;;;;;;;4.88;3.00;;;24.50;99.10;;;;;;3583138;40;20398;-70
2021/06/28 07:19:40;;;;;;;10.98;3.70;;;;;;;;;;3587619;40;20378;-70
2021/06/28 07:22:06;;;;;;;6.35;2.92;;;;;;;;;;3587513;40;20402;-70
2021/06/28 07:24:33;;;;;;;8.02;3.85;;;;;;;;;;3579697;40;20771;-70
2021/06/28 07:27:00;;;;;;;7.00;3.50;;;;;;;;;;3585720;40;20385;-69
2021/06/28 07:29:26;;;;;;;7.93;3.92;;;;;;;;;;3587757;40;20716;-70
2021/06/28 07:31:52;;;;;;;5.00;3.65;;;;;;;;;;3589139;40;20471;-69
2021/06/28 07:34:18;;;;;;;5.05;3.85;;;;;;;;;;3583658;40;20414;-69
2021/06/28 07:36:44;;;;;;;5.85;4.15;;;;;;;;;;3590029;40;20378;-69
2021/06/28 07:39:10;;;;;;;5.60;3.60;;;24.60;98.70;;;;;;3590692;40;20504;-70
2021/06/28 07:41:38;;;;;;;4.25;3.17;;;;;;;;;;3577182;40;20706;-69
2021/06/28 07:44:06;;;;;;;3.05;2.75;;;25.30;97.90;;;;;;3587567;40;20417;-69
2021/06/28 07:46:32;;;;;;;3.15;2.53;;;25.90;97.60;;;;;;3580467;40;20403;-70
2021/06/28 07:48:58;;;;;;;2.95;2.50;;;;;;;;;;3576050;40;20413;-70
2021/06/28 07:51:24;;;;;;;3.88;2.38;;;26.20;97.20;;;;;;3587549;40;20405;-70
2021/06/28 07:53:50;;;;;;;3.67;2.30;;;26.70;95.80;;;;;;3587176;40;20394;-69
2021/06/28 07:56:17;;;;;;;3.35;2.30;;;26.80;95.40;;;;;;3578022;40;20394;-69
2021/06/28 07:58:46;;;;;;;3.50;1.95;;;27.00;95.40;;;;;;3586062;40;20380;-69
2021/06/28 08:01:12;;;;;;;2.60;2.38;;;;;;;;;;3585996;40;20370;-70
2021/06/28 08:03:46;;;;;;;2.50;2.03;;;;;;;;;;3584824;40;20410;-70
2021/06/28 08:06:13;;;;;;;3.08;2.55;;;;;;;;;;3585549;40;20358;-70
2021/06/28 08:08:39;;;;;;;2.77;2.00;;;;;;;;;;3589297;40;20492;-70
2021/06/28 08:11:07;;;;;;;2.30;1.50;;;;;;;;;;3587486;40;20372;-70
2021/06/28 08:13:33;;;;;;;2.63;2.00;;;;;;;;;;3585796;40;20631;-70
2021/06/28 08:16:01;;;;;;;2.65;1.38;;;;;;;;;;3588179;40;20378;-70
2021/06/28 08:18:27;;;;;;;3.42;2.00;;;;;;;;;;3587387;40;20370;-70
2021/06/28 08:20:53;;;;;;;1.45;1.35;;;;;;;;;;3587747;40;20382;-70
2021/06/28 08:23:19;;;;;;;2.97;1.63;;;;;;;;;;3587507;40;20459;-70
2021/06/28 08:25:46;;;;;;;3.00;1.50;;;;;;;;;;3582500;40;20775;-70
2021/06/28 08:28:12;;;;;;;2.80;1.97;;;;;;;;;;3585699;40;20382;-70
2021/06/28 08:30:38;;;;;;;3.25;2.05;;;;;;;;;;3588080;40;20371;-70
2021/06/28 08:33:06;;;;;;;3.33;1.93;;;;;;;;;;3587852;40;20468;-69
2021/06/28 08:35:32;;;;;;;4.05;2.20;;;;;;;;;;3587161;40;20405;-70
2021/06/28 08:37:58;;;;;;;2.50;2.20;;;;;;;;;;3579631;40;20793;-70
2021/06/28 08:40:25;;;;;;;4.75;2.28;;;;;;;;;;3581908;40;20658;-70
2021/06/28 08:42:51;;;;;;;4.05;2.40;;;;;;;;;;3587141;40;20402;-70
2021/06/28 08:45:17;;;;;;;4.50;3.38;;;;;;;;;;3587268;40;20380;-69
2021/06/28 08:47:43;;;;;;;5.75;3.22;;;;;;;;;;3587173;40;20497;-70
2021/06/28 08:50:12;;;;;;;4.13;3.42;;;;;;;;;;3587436;40;20756;-70
2021/06/28 08:52:39;;;;;;;5.50;2.95;;;;;;;;;;3587011;40;20382;-70
2021/06/28 08:55:06;;;;;;;4.50;3.03;;;;;;;;;;3586957;40;20647;-69
2021/06/28 08:57:32;;;;;;;4.30;3.40;;;;;;;;;;3587266;40;20483;-70
2021/06/28 08:59:58;;;;;;;4.22;3.03;;;;;;;;;;3584631;40;20402;-70
2021/06/28 09:02:24;;;;;;;5.82;3.70;;;;;;;;;;3589739;40;20917;-70
2021/06/28 09:04:57;;;;;;;5.65;3.67;;;;;;;;;;3590065;40;20383;-70
2021/06/28 09:07:25;;;;;;;4.55;3.67;;;;;;;;;;3592232;40;20373;-69
2021/06/28 09:09:51;;;;;;;5.77;3.80;;;;;;;;;;3590828;40;20385;-69
2021/06/28 09:12:18;;;;;;;4.07;3.00;;;;;;;;;;3577505;40;20397;-70
2021/06/28 09:14:48;;;;;;;5.03;3.45;;;;;;;;;;3584440;40;20395;-69
2021/06/28 09:17:28;;;;;;;3.35;3.05;;;;;;;;;;3588799;40;20384;-69
2021/06/28 09:20:13;;;;;;;3.10;2.70;;;;;;;;;;3587444;40;20749;-70
2021/06/28 09:22:42;;;;;;;4.15;3.00;;;;;;;;;;3585595;40;20432;-70
2021/06/28 09:25:09;;;;;;;4.80;2.80;;;;;;;;;;3593593;40;20753;-70
2021/06/28 09:27:45;;;;;;;4.40;2.80;;;;;;;;;;3584788;40;20448;-70
2021/06/28 09:30:16;;;;;;;4.87;2.70;;;;;;;;;;3586835;40;20675;-70
2021/06/28 09:32:50;;;;;;;3.65;2.70;;;;;;;;;;3583811;40;20453;-70
2021/06/28 09:35:27;;;;;;;4.07;2.50;;;;;;;;;;3588764;40;20456;-70
2021/06/28 09:37:54;;;;;;;2.50;2.30;;;;;;;;;;3586739;40;20836;-70
2021/06/28 09:40:24;;;;;;;4.13;2.20;;;;;;;;;;3583032;40;20443;-70
2021/06/28 09:42:50;;;;;;;2.50;2.30;;;;;;;;;;3586604;40;20381;-70
2021/06/28 09:45:17;;;;;;;4.20;2.70;;;;;;;;;;3587795;40;20392;-71
2021/06/28 09:47:43;;;;;;;4.20;3.05;;;;;;;;;;3586729;40;20478;-69
2021/06/28 09:50:11;;;;;;;3.80;2.70;;;;;;;;;;3575096;40;20400;-70
2021/06/28 09:52:43;;;;;;;2.95;2.45;;;;;;;;;;3575477;40;20483;-70
2021/06/28 09:55:18;;;;;;;3.75;2.65;;;;;;;;;;3582380;40;20371;-70
2021/06/28 09:58:04;;;;;;;3.78;2.72;;;;;;;;;;3584687;40;20831;-70
2021/06/28 10:00:30;;;;;;;6.13;2.90;;;;;;;;;;3581695;40;20628;-70
2021/06/28 10:02:57;;;;;;;3.77;2.60;;;;;;;;;;3575085;40;20445;-69
2021/06/28 10:05:26;;;;;;;2.73;2.50;;;;;;;;;;3588198;40;20391;-69
2021/06/28 10:07:54;;;;;;;4.53;3.17;;;;;;;;;;3581572;40;20388;-69
2021/06/28 10:10:28;;;;;;;5.13;2.58;;;;;;;;;;3577340;40;20488;-69
2021/06/28 10:13:04;;;;;;;3.20;2.22;;;;;;;;;;3578222;40;20659;-69
2021/06/28 10:15:31;;;;;;;3.28;2.33;;;;;;;;;;3591916;40;20847;-69
2021/06/28 10:17:57;;;;;;;3.70;2.00;;;;;;;;;;3585814;40;20450;-69
2021/06/28 10:20:24;;;;;;;3.40;2.10;;;;;;;;;;3588842;40;20385;-69
2021/06/28 10:22:51;;;;;;;2.75;2.33;;;;;;;;;;3584538;40;20442;-69
2021/06/28 10:25:18;;;;;;;3.40;2.42;;;;;;;;;;3587171;40;20389;-69
2021/06/28 10:27:46;;;;;;;2.40;1.73;;;;;;;;;;3587811;40;20386;-69
2021/06/28 10:30:14;;;;;;;2.90;1.85;;;;;;;;;;3584245;40;20454;-70
2021/06/28 10:32:41;;;;;;;3.10;1.85;;;;;;;;;;3581020;40;20492;-69
2021/06/28 10:35:09;;;;;;;2.58;2.05;;;;;;;;;;3590384;40;20394;-69
2021/06/28 10:37:37;;;;;;;2.20;1.52;;;;;;;;;;3587206;40;20374;-69
2021/06/28 10:40:05;;;;;;;4.25;2.20;;;;;;;;;;3592295;40;20387;-69
2021/06/28 10:42:32;;;;;;;3.00;1.98;;;;;;;;;;3586621;40;20417;-70
2021/06/28 10:45:00;;;;;;;2.90;1.30;;;;;;;;;;3591613;40;20374;-69
2021/06/28 10:47:28;;;;;;;2.25;1.50;;;;;;;;;;3580213;40;20391;-69
2021/06/28 10:49:54;;;;;;;2.72;1.42;;;;;;;;;;3586794;40;20377;-69
2021/06/28 10:52:47;;;;;;;2.78;1.40;;;;;;;;;;3582908;40;20483;-69
2021/06/28 10:55:32;;;;;;;3.40;1.60;;;;;;;;;;3566227;40;20535;-70
2021/06/28 10:57:58;;;;;;;3.42;1.70;;;;;;;;;;3581705;40;20421;-69
2021/06/28 11:00:39;;;;;;;1.40;1.15;;;;;;;;;;3573908;40;20683;-69
2021/06/28 11:03:29;;;;;;;2.58;1.20;;;;;;;;;;3581596;40;20410;-69
2021/06/28 11:06:15;;;;;;;3.83;1.37;;;;;;;;;;3573689;40;20459;-69
2021/06/28 11:08:56;;;;;;;3.00;1.20;;;27.20;95.40;;;;;;3581359;40;20389;-69
2021/06/28 11:11:37;;;;;;;3.97;1.60;;;;;;;;;;3582759;40;20776;-69
2021/06/28 11:14:03;;;;;;;2.15;1.10;;;;;;;;;;3582148;40;20801;-68
2021/06/28 11:16:30;;;;;;;2.15;1.90;;;;;;;;;;3572246;40;20499;-69
2021/06/28 11:18:58;;;;;;;3.03;1.27;;;;;;;;;;3583716;40;20614;-69
2021/06/28 11:21:37;;;;;;;2.05;1.20;;;31.00;98.10;;;;;;3582340;40;20389;-69
2021/06/28 11:24:03;;;;;;;1.90;0.80;;;;;;;;;;3574428;40;20380;-69
2021/06/28 11:26:32;;;;;;;9.77;1.90;;;;;;;;;;3583101;40;20383;-69
2021/06/28 11:28:59;;;;;;;1.30;0.70;;;;;;;;;;3581338;40;20370;-69
2021/06/28 11:31:28;;;;;;;3.07;0.70;;;;;;;;;;3589074;40;20835;-69
2021/06/28 11:33:55;;;;;;;2.25;0.60;;;;;;;;;;3588285;40;20818;-69
2021/06/28 11:36:45;;;;;;;1.00;0.60;;;;;;;;;;3585110;40;20382;-69
2021/06/28 11:39:26;;;;;;;1.85;0.52;;;;;;;;;;3586432;40;20366;-69
2021/06/28 11:42:11;;;;;;;1.58;0.52;;;;;;;;;;3585876;40;20864;-69
2021/06/28 11:44:48;;;;;;;1.98;0.68;;;;;;;;;;3584711;40;20611;-69
2021/06/28 11:47:14;;;;;;;1.88;0.50;;;31.40;98.50;;;;;;3580945;40;20373;-69
2021/06/28 11:49:40;;;;;;;1.60;0.50;;;32.70;78.50;;;;;;3577032;40;20472;-70
2021/06/28 11:52:14;;;;;;;1.00;0.40;;;;;;;;;;3582945;40;20402;-69
2021/06/28 11:54:41;;;;;;;2.00;0.50;;;;;;;;;;3583017;40;20718;-69
2021/06/28 11:57:08;;;;;;;1.43;0.50;;;;;;;;;;3578224;40;20765;-69
2021/06/28 11:59:40;;;;;;;0.70;0.50;;;;;;;;;;3584948;40;20375;-69
2021/06/28 12:02:06;;;;;;;2.38;0.70;;;;;;;;;;3585428;40;20464;-69
2021/06/28 12:04:34;;;;;;;1.10;0.53;;;;;;;;;;3589370;40;20405;-69
2021/06/28 12:07:01;;;;;;;1.60;0.45;;;32.40;97.20;;;;;;3593734;40;20753;-69
2021/06/28 12:09:28;;;;;;;1.77;0.40;;;32.30;91.40;;;;;;3585771;40;20378;-69
2021/06/28 12:11:57;;;;;;;1.00;0.50;;;;;;;;;;3585320;40;20386;-69
2021/06/28 12:14:30;;;;;;;4.68;0.70;;;;;;;;;;3586951;40;20382;-69
2021/06/28 12:16:57;;;;;;;2.92;0.60;;;;;;;;;;3594955;40;20372;-69
2021/06/28 12:19:23;;;;;;;0.80;0.40;;;;;;;;;;3579771;40;20764;-69
2021/06/28 12:21:49;;;;;;;1.92;0.43;;;32.60;91.20;;;;;;3595259;40;20376;-70
2021/06/28 12:24:17;;;;;;;2.47;0.50;;;32.40;93.30;;;;;;3581084;40;20392;-69
2021/06/28 12:26:58;;;;;;;2.97;0.50;;;;;;;;;;3587064;40;20512;-69
2021/06/28 12:29:27;;;;;;;1.85;0.60;;;;;;;;;;3575021;40;20398;-69
2021/06/28 12:31:59;;;;;;;0.68;0.40;;;;;;;;;;3588123;40;20490;-69
2021/06/28 12:34:25;;;;;;;1.58;0.60;;;;;;;;;;3588287;40;20742;-69
2021/06/28 12:36:52;;;;;;;4.00;0.70;;;;;;;;;;3588174;40;20381;-69
2021/06/28 12:39:21;;;;;;;3.60;0.70;;;;;;;;;;3577930;40;20677;-68
2021/06/28 12:41:48;;;;;;;1.40;0.40;;;;;;;;;;3586735;40;20491;-69
2021/06/28 12:44:14;;;;;;;2.80;0.70;;;;;;;;;;3581894;40;20767;-69
2021/06/28 12:46:43;;;;;;;2.35;0.40;;;;;;;;;;3570717;40;20514;-69
2021/06/28 12:49:09;;;;;;;1.50;0.60;;;;;;;;;;3590162;40;20386;-69
2021/06/28 12:51:35;;;;;;;1.30;0.45;;;;;;;;;;3592978;40;20757;-69
2021/06/28 12:54:01;;;;;;;1.70;0.60;;;;;;;;;;3583802;40;20380;-69
2021/06/28 12:56:30;;;;;;;1.80;0.50;;;;;;;;;;3585627;40;20398;-69
2021/06/28 12:58:58;;;;;;;1.80;0.40;;;;;;;;;;3577400;40;20429;-68
2021/06/28 13:01:31;;;;;;;0.45;0.35;;;;;;;;;;3578652;40;20655;-69
2021/06/28 13:04:12;;;;;;;1.08;0.40;;;;;;;;;;3576252;40;20472;-69
2021/06/28 13:06:39;;;;;;;2.38;0.50;;;;;;;;;;3579380;40;20398;-69
2021/06/28 13:09:11;;;;;;;1.38;0.40;;;;;;;;;;3585942;40;20463;-69
2021/06/28 13:11:45;;;;;;;1.65;0.50;;;32.10;95.10;;;;;;3587338;40;20445;-69
2021/06/28 13:14:23;;;;;;;1.80;0.52;;;32.80;95.00;;;;;;3586714;40;20467;-69
2021/06/28 13:19:16;;;;;;;2.20;0.50;;;32.60;95.30;;;;;;3585383;40;20370;-69
2021/06/28 13:21:57;;;;;;;2.67;0.60;;;32.60;97.80;;;;;;3585990;40;20389;-69
2021/06/28 13:24:26;;;;;;;1.53;0.60;;;32.50;97.20;;;;;;3579489;40;20389;-69
2021/06/28 13:26:57;;;;;;;1.47;0.50;;;;;;;;;;3586304;40;20374;-69
2021/06/28 13:29:30;;;;;;;1.20;0.60;;;;;;;;;;3586979;40;20365;-69
2021/06/28 13:32:19;;;;;;;0.95;0.40;;;;;;;;;;3578086;40;20452;-69
2021/06/28 13:34:46;;;;;;;2.20;0.50;;;;;;;;;;3586969;40;20367;-69
2021/06/28 13:37:16;;;;;;;0.82;0.43;;;;;;;;;;3585013;40;20475;-69
2021/06/28 13:39:49;;;;;;;1.85;0.40;;;32.30;97.60;;;;;;3586936;40;20648;-70
2021/06/28 13:42:20;;;;;;;2.27;0.50;;;32.90;98.50;;;;;;3585778;40;20816;-69
2021/06/28 13:45:09;;;;;;;2.65;0.50;;;32.80;98.20;;;;;;3586027;40;20414;-69
2021/06/28 13:47:49;;;;;;;2.45;0.50;;;32.70;97.80;;;;;;3582597;40;20422;-69
2021/06/28 13:50:17;;;;;;;1.05;0.40;;;32.60;98.70;;;;;;3584333;40;20507;-68
2021/06/28 13:52:45;;;;;;;2.30;0.40;;;;;;;;;;3584531;40;20399;-69
2021/06/28 13:55:11;;;;;;;1.70;0.50;;;;;;;;;;3584501;40;20482;-69
2021/06/28 13:57:44;;;;;;;2.05;0.60;;;;;;;;;;3586666;40;20378;-69
2021/06/28 14:00:11;;;;;;;1.80;0.60;;;33.70;67.90;;;;;;3587646;40;20414;-69
2021/06/28 14:02:37;;;;;;;1.15;0.40;;;33.70;93.40;;;;;;3575147;40;20771;-69
2021/06/28 14:05:03;;;;;;;2.70;1.00;;;;;;;;;;3585329;40;20382;-69
2021/06/28 14:07:29;;;;;;;1.27;0.60;;;33.20;92.10;;;;;;3578760;40;20530;-69
2021/06/28 14:09:57;;;;;;;2.60;0.60;;;32.60;93.90;;;;;;3587469;40;20733;-69
2021/06/28 14:12:22;;;;;;;4.00;0.80;;;32.70;93.80;;;;;;3588549;40;20688;-69
2021/06/28 14:14:48;;;;;;;1.52;0.63;;;32.70;93.60;;;;;;3586886;40;20374;-69
2021/06/28 14:17:15;;;;;;;1.88;0.68;;;;;;;;;;3586377;40;20405;-69
2021/06/28 14:19:41;;;;;;;2.90;0.77;;;;;;;;;;3584319;40;20390;-69
2021/06/28 14:22:07;;;;;;;2.28;0.70;;;;;;;;;;3585149;40;20394;-69
2021/06/28 14:24:33;;;;;;;3.47;0.80;;;;;;;;;;3585478;40;20366;-69
2021/06/28 14:27:01;;;;;;;2.90;0.70;;;;;;;;;;3585706;40;20421;-70
2021/06/28 14:29:33;;;;;;;1.52;0.50;;;;;;;;;;3582128;40;20464;-69
2021/06/28 14:31:59;;;;;;;0.93;0.40;;;;;;;;;;3587211;40;20642;-69